Multibeam Report for NF-11-09-CIOERT


Ship Name: Nancy Foster
Chief Scientist: Reed, John
Harbor Branch Oceanographic Institute, Florida Atlantic University
Source Organization: National Oceanic and Atmospheric Administration (NOAA)
Start Date: 2011-09-12
End Date: 2011-09-30


View ISO Metadata

Visit the full NCEI Bathymetry Viewer


Multibeam Bathymetry

Cruise Details

Project: Florida Shelf Edge Exploration
Instrument: Kongsberg EM1002 and Reson SeaBat 7125

Data Quality

Number of Files: 140
Number of Records: 386598
BATHYMETRY DATA Quantity Percentage
Number of Beams 119591616 100%
Number of Good Beams 118839295 99.37%
Number of Zero Beams 16567 0.01%
Number of Flagged Beams 735754 0.62%

Navigation Totals

Total Time: 68.0264 hours
Total Track Length: 857.7728 km
Average Speed: 12.609 km/hr (6.8083 knots)

Cruise Bounds

Northern Extent: 25.00025
Southern Extent: 24.235462
Western Extent: -83.81954
Eastern Extent: -80.35216

Limits

Minimum Sonar Depth 0 Maximum Sonar Depth 3.91
Minimum Altitude 0 Maximum Altitude 808.84
Minimum Depth 35.83 Maximum Depth 918.12

File Information

Full Resolution Bathymetry as collected (raw): 68

Files File Size Description
0010_20110923_155327_raw.all.mb56.gz 5.01MB Simrad multibeam vendor format
0011_20110924_042938_raw.all.mb56.gz 23.22MB Simrad multibeam vendor format
0012_20110924_051908_raw.all.mb56.gz 23.74MB Simrad multibeam vendor format
0013_20110924_060758_raw.all.mb56.gz 22.87MB Simrad multibeam vendor format
0014_20110924_065554_raw.all.mb56.gz 23.76MB Simrad multibeam vendor format
0015_20110924_074538_raw.all.mb56.gz 22.57MB Simrad multibeam vendor format
0016_20110924_083523_raw.all.mb56.gz 23.37MB Simrad multibeam vendor format
0017_20110924_092459_raw.all.mb56.gz 22.65MB Simrad multibeam vendor format
0018_20110924_101404_raw.all.mb56.gz 6.73MB Simrad multibeam vendor format
0019_20110924_175018_raw.all.mb56.gz 6.84MB Simrad multibeam vendor format
0020_20110925_035645_raw.all.mb56.gz 23.66MB Simrad multibeam vendor format
0021_20110925_045226_raw.all.mb56.gz 25.24MB Simrad multibeam vendor format
0022_20110925_055040_raw.all.mb56.gz 24.44MB Simrad multibeam vendor format
0023_20110925_064800_raw.all.mb56.gz 26.54MB Simrad multibeam vendor format
0024_20110925_074954_raw.all.mb56.gz 26.50MB Simrad multibeam vendor format
0025_20110925_085042_raw.all.mb56.gz 25.77MB Simrad multibeam vendor format
0026_20110925_095133_raw.all.mb56.gz 7.51MB Simrad multibeam vendor format
0027_20110925_101051_raw.all.mb56.gz 10.48MB Simrad multibeam vendor format
0028_20110925_104641_raw.all.mb56.gz 2.49MB Simrad multibeam vendor format
0029_20110926_031620_raw.all.mb56.gz 22.06MB Simrad multibeam vendor format
0030_20110926_040459_raw.all.mb56.gz 21.13MB Simrad multibeam vendor format
0031_20110926_045129_raw.all.mb56.gz 20.19MB Simrad multibeam vendor format
0032_20110926_053402_raw.all.mb56.gz 23.54MB Simrad multibeam vendor format
0033_20110926_061956_raw.all.mb56.gz 21.98MB Simrad multibeam vendor format
0034_20110926_070430_raw.all.mb56.gz 23.06MB Simrad multibeam vendor format
0035_20110926_075414_raw.all.mb56.gz 21.91MB Simrad multibeam vendor format
0036_20110926_084849_raw.all.mb56.gz 23.81MB Simrad multibeam vendor format
0037_20110926_094007_raw.all.mb56.gz 13.27MB Simrad multibeam vendor format
0038_20110926_100908_raw.all.mb56.gz 18.43MB Simrad multibeam vendor format
0039_20110926_104623_raw.all.mb56.gz 2.03MB Simrad multibeam vendor format
0040_20110927_034528_raw.all.mb56.gz 24.90MB Simrad multibeam vendor format
0041_20110927_043305_raw.all.mb56.gz 24.99MB Simrad multibeam vendor format
0042_20110927_052300_raw.all.mb56.gz 24.64MB Simrad multibeam vendor format
0043_20110927_061051_raw.all.mb56.gz 23.87MB Simrad multibeam vendor format
0044_20110927_065752_raw.all.mb56.gz 25.77MB Simrad multibeam vendor format
0045_20110927_074724_raw.all.mb56.gz 26.22MB Simrad multibeam vendor format
0046_20110927_084117_raw.all.mb56.gz 28.94MB Simrad multibeam vendor format
0047_20110927_093652_raw.all.mb56.gz 6.42MB Simrad multibeam vendor format
0048_20110927_100034_raw.all.mb56.gz 8.02MB Simrad multibeam vendor format
0049_20110927_103015_raw.all.mb56.gz 16.39MB Simrad multibeam vendor format
0050_20110927_181627_raw.all.mb56.gz 0.96MB Simrad multibeam vendor format
0051_20110928_051027_raw.all.mb56.gz 8.61MB Simrad multibeam vendor format
0052_20110928_053424_raw.all.mb56.gz 13.55MB Simrad multibeam vendor format
0053_20110928_060935_raw.all.mb56.gz 21.53MB Simrad multibeam vendor format
0054_20110928_070922_raw.all.mb56.gz 21.36MB Simrad multibeam vendor format
0055_20110928_080848_raw.all.mb56.gz 23.78MB Simrad multibeam vendor format
0056_20110928_091240_raw.all.mb56.gz 20.45MB Simrad multibeam vendor format
0057_20110928_101914_raw.all.mb56.gz 9.92MB Simrad multibeam vendor format
0058_20110928_104618_raw.all.mb56.gz 4.43MB Simrad multibeam vendor format
0059_20110928_110011_raw.all.mb56.gz 3.04MB Simrad multibeam vendor format
0060_20110929_041836_raw.all.mb56.gz 11.80MB Simrad multibeam vendor format
0061_20110929_051452_raw.all.mb56.gz 12.36MB Simrad multibeam vendor format
0062_20110929_060950_raw.all.mb56.gz 13.12MB Simrad multibeam vendor format
0063_20110929_070744_raw.all.mb56.gz 14.71MB Simrad multibeam vendor format
0064_20110929_080948_raw.all.mb56.gz 7.51MB Simrad multibeam vendor format
0065_20110929_083827_raw.all.mb56.gz 10.85MB Simrad multibeam vendor format
0066_20110929_092339_raw.all.mb56.gz 4.94MB Simrad multibeam vendor format
0067_20110929_094444_raw.all.mb56.gz 5.42MB Simrad multibeam vendor format
0068_20110929_103134_raw.all.mb56.gz 2.27MB Simrad multibeam vendor format
0069_20110929_104946_raw.all.mb56.gz 2.01MB Simrad multibeam vendor format
0070_20110930_042241_raw.all.mb56.gz 23.10MB Simrad multibeam vendor format
0071_20110930_051144_raw.all.mb56.gz 24.47MB Simrad multibeam vendor format
0072_20110930_060055_raw.all.mb56.gz 24.51MB Simrad multibeam vendor format
0073_20110930_065059_raw.all.mb56.gz 25.80MB Simrad multibeam vendor format
0074_20110930_074201_raw.all.mb56.gz 25.57MB Simrad multibeam vendor format
0075_20110930_083254_raw.all.mb56.gz 24.97MB Simrad multibeam vendor format
0076_20110930_092100_raw.all.mb56.gz 24.93MB Simrad multibeam vendor format
0077_20110930_103309_raw.all.mb56.gz 6.83MB Simrad multibeam vendor format

Full Resolution Bathymetry (processed): 70

Files File Size Description
001_0322.mb201.gz 10.17MB HYSWEEP multibeam data format
001_0400.mb201.gz 13.85MB HYSWEEP multibeam data format
001_0422.mb201.gz 19.24MB HYSWEEP multibeam data format
001_0431.mb201.gz 7.52MB HYSWEEP multibeam data format
001_0836.mb201.gz 10.44MB HYSWEEP multibeam data format
001_0908.mb201.gz 10.23MB HYSWEEP multibeam data format
002_0358.mb201.gz 9.78MB HYSWEEP multibeam data format
002_0429.mb201.gz 13.83MB HYSWEEP multibeam data format
002_0446.mb201.gz 8.04MB HYSWEEP multibeam data format
002_0457.mb201.gz 19.13MB HYSWEEP multibeam data format
002_0803.mb201.gz 11.03MB HYSWEEP multibeam data format
002_0832.mb201.gz 16.54MB HYSWEEP multibeam data format
003_0426.mb201.gz 8.97MB HYSWEEP multibeam data format
003_0454.mb201.gz 14.26MB HYSWEEP multibeam data format
003_0503.mb201.gz 8.62MB HYSWEEP multibeam data format
003_0531.mb201.gz 20.29MB HYSWEEP multibeam data format
003_0730.mb201.gz 10.65MB HYSWEEP multibeam data format
003_0804.mb201.gz 16.25MB HYSWEEP multibeam data format
004_0452.mb201.gz 8.13MB HYSWEEP multibeam data format
004_0520.mb201.gz 13.68MB HYSWEEP multibeam data format
004_0521.mb201.gz 8.06MB HYSWEEP multibeam data format
004_0604.mb201.gz 18.77MB HYSWEEP multibeam data format
004_0657.mb201.gz 11.00MB HYSWEEP multibeam data format
005_0517.mb201.gz 7.99MB HYSWEEP multibeam data format
005_0541.mb201.gz 7.83MB HYSWEEP multibeam data format
005_0544.mb201.gz 15.40MB HYSWEEP multibeam data format
005_0624.mb201.gz 11.85MB HYSWEEP multibeam data format
005_0636.mb201.gz 18.34MB HYSWEEP multibeam data format
006_0542.mb201.gz 8.39MB HYSWEEP multibeam data format
006_0550.mb201.gz 13.16MB HYSWEEP multibeam data format
006_0607.mb201.gz 15.48MB HYSWEEP multibeam data format
006_0708.mb201.gz 19.31MB HYSWEEP multibeam data format
006_0857.mb201.gz 6.36MB HYSWEEP multibeam data format
007_0517.mb201.gz 12.64MB HYSWEEP multibeam data format
007_0608.mb201.gz 6.94MB HYSWEEP multibeam data format
007_0631.mb201.gz 14.92MB HYSWEEP multibeam data format
007_0740.mb201.gz 18.56MB HYSWEEP multibeam data format
008_0444.mb201.gz 13.03MB HYSWEEP multibeam data format
008_0632.mb201.gz 7.46MB HYSWEEP multibeam data format
008_0655.mb201.gz 15.45MB HYSWEEP multibeam data format
008_0735.mb201.gz 17.24MB HYSWEEP multibeam data format
008_0813.mb201.gz 19.55MB HYSWEEP multibeam data format
008_0920.mb201.gz 4.65MB HYSWEEP multibeam data format
008_0952.mb201.gz 5.26MB HYSWEEP multibeam data format
009_0411.mb201.gz 13.06MB HYSWEEP multibeam data format
009_0658.mb201.gz 7.17MB HYSWEEP multibeam data format
009_0707.mb201.gz 15.50MB HYSWEEP multibeam data format
009_0718.mb201.gz 15.03MB HYSWEEP multibeam data format
009_0847.mb201.gz 18.20MB HYSWEEP multibeam data format
010_0338.mb201.gz 12.52MB HYSWEEP multibeam data format
010_0606.mb201.gz 15.59MB HYSWEEP multibeam data format
010_0724.mb201.gz 7.78MB HYSWEEP multibeam data format
010_0742.mb201.gz 16.71MB HYSWEEP multibeam data format
010_0850.mb201.gz 7.27MB HYSWEEP multibeam data format
010_0919.mb201.gz 14.24MB HYSWEEP multibeam data format
011_0304.mb201.gz 11.53MB HYSWEEP multibeam data format
011_0635.mb201.gz 17.57MB HYSWEEP multibeam data format
011_0752.mb201.gz 6.63MB HYSWEEP multibeam data format
011_0807.mb201.gz 15.66MB HYSWEEP multibeam data format
011_0948.mb201.gz 11.03MB HYSWEEP multibeam data format
012_0817.mb201.gz 7.24MB HYSWEEP multibeam data format
012_0832.mb201.gz 16.08MB HYSWEEP multibeam data format
012_1009.mb201.gz 9.32MB HYSWEEP multibeam data format
013_0857.mb201.gz 13.42MB HYSWEEP multibeam data format
013_0937.mb201.gz 8.40MB HYSWEEP multibeam data format
014_0921.mb201.gz 13.81MB HYSWEEP multibeam data format
015_0946.mb201.gz 13.55MB HYSWEEP multibeam data format
016_0931.mb201.gz 13.30MB HYSWEEP multibeam data format
017_0907.mb201.gz 13.23MB HYSWEEP multibeam data format
018_0959.mb201.gz 7.04MB HYSWEEP multibeam data format

Metadata Files: 1

Files File Size Description
NF-11-09-CIOERT_Multibeam.xml NGDC created ISO metadata

Ancillary Files: 1

Files File Size Description
svp.tar.gz 12.6KB Sound Speed Profiles (SSP or SVP)